sensor_id;sensor_type;location;lat;lon;timestamp;temperature;humidity
19242;DHT22;9755;47.790;9.620;2023-06-24T00:00:23;14.40;1.00
19242;DHT22;9755;47.790;9.620;2023-06-24T00:02:50;14.30;1.00
19242;DHT22;9755;47.790;9.620;2023-06-24T00:05:19;14.20;1.00
19242;DHT22;9755;47.790;9.620;2023-06-24T00:07:47;14.10;1.00
19242;DHT22;9755;47.790;9.620;2023-06-24T00:10:14;14.00;1.00
19242;DHT22;9755;47.790;9.620;2023-06-24T00:12:41;13.90;1.00
19242;DHT22;9755;47.790;9.620;2023-06-24T00:15:10;13.90;1.00
19242;DHT22;9755;47.790;9.620;2023-06-24T00:17:37;13.90;1.00
19242;DHT22;9755;47.790;9.620;2023-06-24T00:20:05;13.70;1.00
19242;DHT22;9755;47.790;9.620;2023-06-24T00:22:34;13.60;1.00
19242;DHT22;9755;47.790;9.620;2023-06-24T00:25:01;13.60;1.00
19242;DHT22;9755;47.790;9.620;2023-06-24T00:27:31;13.50;1.00
19242;DHT22;9755;47.790;9.620;2023-06-24T00:29:58;13.50;1.00
19242;DHT22;9755;47.790;9.620;2023-06-24T00:32:26;13.50;1.00
19242;DHT22;9755;47.790;9.620;2023-06-24T00:34:53;13.60;1.00
19242;DHT22;9755;47.790;9.620;2023-06-24T00:37:23;13.60;1.00
19242;DHT22;9755;47.790;9.620;2023-06-24T00:39:50;13.60;1.00
19242;DHT22;9755;47.790;9.620;2023-06-24T00:42:17;13.60;1.00
19242;DHT22;9755;47.790;9.620;2023-06-24T00:44:44;13.60;1.00
19242;DHT22;9755;47.790;9.620;2023-06-24T00:47:13;13.60;1.00
19242;DHT22;9755;47.790;9.620;2023-06-24T00:49:42;13.60;1.00
19242;DHT22;9755;47.790;9.620;2023-06-24T00:52:11;13.50;1.00
19242;DHT22;9755;47.790;9.620;2023-06-24T00:54:41;13.50;1.00
19242;DHT22;9755;47.790;9.620;2023-06-24T00:57:08;13.50;1.00
19242;DHT22;9755;47.790;9.620;2023-06-24T00:59:36;13.50;1.00
19242;DHT22;9755;47.790;9.620;2023-06-24T01:02:05;13.60;1.00
19242;DHT22;9755;47.790;9.620;2023-06-24T01:04:33;13.60;1.00
19242;DHT22;9755;47.790;9.620;2023-06-24T01:07:01;13.60;1.00
19242;DHT22;9755;47.790;9.620;2023-06-24T01:09:29;13.60;1.00
19242;DHT22;9755;47.790;9.620;2023-06-24T01:11:56;13.50;1.00
19242;DHT22;9755;47.790;9.620;2023-06-24T01:14:23;13.40;1.00
19242;DHT22;9755;47.790;9.620;2023-06-24T01:16:56;13.30;1.00
19242;DHT22;9755;47.790;9.620;2023-06-24T01:19:50;13.10;1.00
19242;DHT22;9755;47.790;9.620;2023-06-24T01:22:36;13.00;1.00
19242;DHT22;9755;47.790;9.620;2023-06-24T01:25:19;12.90;40.00
19242;DHT22;9755;47.790;9.620;2023-06-24T01:28:12;12.80;95.30
19242;DHT22;9755;47.790;9.620;2023-06-24T01:31:14;12.80;99.90
19242;DHT22;9755;47.790;9.620;2023-06-24T01:33:47;12.80;99.90
19242;DHT22;9755;47.790;9.620;2023-06-24T01:36:17;12.80;99.90
19242;DHT22;9755;47.790;9.620;2023-06-24T01:38:48;13.00;99.90
19242;DHT22;9755;47.790;9.620;2023-06-24T01:41:22;13.10;99.90
19242;DHT22;9755;47.790;9.620;2023-06-24T01:43:51;13.20;99.90
19242;DHT22;9755;47.790;9.620;2023-06-24T01:46:22;13.30;99.90
19242;DHT22;9755;47.790;9.620;2023-06-24T01:48:50;13.40;82.50
19242;DHT22;9755;47.790;9.620;2023-06-24T01:51:22;13.40;30.20
19242;DHT22;9755;47.790;9.620;2023-06-24T01:53:53;13.50;1.00
19242;DHT22;9755;47.790;9.620;2023-06-24T01:56:24;13.50;1.00
19242;DHT22;9755;47.790;9.620;2023-06-24T01:58:54;13.60;1.00
19242;DHT22;9755;47.790;9.620;2023-06-24T02:01:24;13.60;1.00
19242;DHT22;9755;47.790;9.620;2023-06-24T02:03:52;13.70;1.00
19242;DHT22;9755;47.790;9.620;2023-06-24T02:06:21;13.70;1.00
19242;DHT22;9755;47.790;9.620;2023-06-24T02:08:50;13.70;1.00
19242;DHT22;9755;47.790;9.620;2023-06-24T02:11:19;13.80;1.00
19242;DHT22;9755;47.790;9.620;2023-06-24T02:13:48;13.80;1.00
19242;DHT22;9755;47.790;9.620;2023-06-24T02:16:17;13.80;1.00
19242;DHT22;9755;47.790;9.620;2023-06-24T02:18:46;13.90;1.00
19242;DHT22;9755;47.790;9.620;2023-06-24T02:21:14;13.90;1.00
19242;DHT22;9755;47.790;9.620;2023-06-24T02:23:44;13.90;1.00
19242;DHT22;9755;47.790;9.620;2023-06-24T02:26:11;14.00;1.00
19242;DHT22;9755;47.790;9.620;2023-06-24T02:28:39;14.00;1.00
19242;DHT22;9755;47.790;9.620;2023-06-24T02:31:08;14.00;1.00
19242;DHT22;9755;47.790;9.620;2023-06-24T02:33:50;14.00;1.00
19242;DHT22;9755;47.790;9.620;2023-06-24T02:36:17;13.90;1.00
19242;DHT22;9755;47.790;9.620;2023-06-24T02:38:44;13.90;1.00
19242;DHT22;9755;47.790;9.620;2023-06-24T02:41:11;13.90;1.00
19242;DHT22;9755;47.790;9.620;2023-06-24T02:43:39;13.80;1.00
19242;DHT22;9755;47.790;9.620;2023-06-24T02:46:07;13.80;1.00
19242;DHT22;9755;47.790;9.620;2023-06-24T02:48:36;13.80;1.00
19242;DHT22;9755;47.790;9.620;2023-06-24T02:51:07;13.80;1.00
19242;DHT22;9755;47.790;9.620;2023-06-24T02:53:36;13.70;1.00
19242;DHT22;9755;47.790;9.620;2023-06-24T02:56:04;13.60;1.00
19242;DHT22;9755;47.790;9.620;2023-06-24T02:58:33;13.50;1.00
19242;DHT22;9755;47.790;9.620;2023-06-24T03:01:02;13.50;19.10
19242;DHT22;9755;47.790;9.620;2023-06-24T03:03:29;13.60;42.30
19242;DHT22;9755;47.790;9.620;2023-06-24T03:05:57;13.60;55.50
19242;DHT22;9755;47.790;9.620;2023-06-24T03:08:27;13.60;30.60
19242;DHT22;9755;47.790;9.620;2023-06-24T03:10:55;13.70;16.70
19242;DHT22;9755;47.790;9.620;2023-06-24T03:13:22;13.70;10.10
19242;DHT22;9755;47.790;9.620;2023-06-24T03:15:50;13.70;1.00
19242;DHT22;9755;47.790;9.620;2023-06-24T03:18:17;13.70;1.00
19242;DHT22;9755;47.790;9.620;2023-06-24T03:20:44;13.80;1.00
19242;DHT22;9755;47.790;9.620;2023-06-24T03:23:12;13.80;1.00
19242;DHT22;9755;47.790;9.620;2023-06-24T03:25:41;13.90;1.00
19242;DHT22;9755;47.790;9.620;2023-06-24T03:28:08;13.90;1.00
19242;DHT22;9755;47.790;9.620;2023-06-24T03:30:35;14.00;1.00
19242;DHT22;9755;47.790;9.620;2023-06-24T03:33:02;14.00;1.00
19242;DHT22;9755;47.790;9.620;2023-06-24T03:35:29;14.00;1.00
19242;DHT22;9755;47.790;9.620;2023-06-24T03:37:58;14.10;1.00
19242;DHT22;9755;47.790;9.620;2023-06-24T03:40:25;14.10;1.00
19242;DHT22;9755;47.790;9.620;2023-06-24T03:42:53;14.10;1.00
19242;DHT22;9755;47.790;9.620;2023-06-24T03:45:20;14.10;1.00
19242;DHT22;9755;47.790;9.620;2023-06-24T03:47:47;14.20;1.00
19242;DHT22;9755;47.790;9.620;2023-06-24T03:50:14;14.20;1.00
19242;DHT22;9755;47.790;9.620;2023-06-24T03:52:41;14.20;1.00
19242;DHT22;9755;47.790;9.620;2023-06-24T03:55:10;14.30;1.00
19242;DHT22;9755;47.790;9.620;2023-06-24T03:57:37;14.20;1.00
19242;DHT22;9755;47.790;9.620;2023-06-24T04:00:07;14.20;1.00
19242;DHT22;9755;47.790;9.620;2023-06-24T04:02:41;14.20;1.00
19242;DHT22;9755;47.790;9.620;2023-06-24T04:05:08;14.30;1.00
19242;DHT22;9755;47.790;9.620;2023-06-24T04:07:36;14.30;1.00
19242;DHT22;9755;47.790;9.620;2023-06-24T04:10:06;14.20;1.00
19242;DHT22;9755;47.790;9.620;2023-06-24T04:12:34;14.30;1.00
19242;DHT22;9755;47.790;9.620;2023-06-24T04:15:02;14.30;1.00
19242;DHT22;9755;47.790;9.620;2023-06-24T04:17:31;14.30;1.00
19242;DHT22;9755;47.790;9.620;2023-06-24T04:19:58;14.40;1.00
19242;DHT22;9755;47.790;9.620;2023-06-24T04:22:25;14.40;1.00
19242;DHT22;9755;47.790;9.620;2023-06-24T04:24:53;14.50;1.00
19242;DHT22;9755;47.790;9.620;2023-06-24T04:27:20;14.50;1.00
19242;DHT22;9755;47.790;9.620;2023-06-24T04:29:47;14.60;1.00
19242;DHT22;9755;47.790;9.620;2023-06-24T04:32:14;14.60;1.00
19242;DHT22;9755;47.790;9.620;2023-06-24T04:34:42;14.60;1.00
19242;DHT22;9755;47.790;9.620;2023-06-24T04:37:09;14.70;1.00
19242;DHT22;9755;47.790;9.620;2023-06-24T04:39:36;14.70;1.00
19242;DHT22;9755;47.790;9.620;2023-06-24T04:42:04;14.80;1.00
19242;DHT22;9755;47.790;9.620;2023-06-24T04:44:31;14.90;1.00
19242;DHT22;9755;47.790;9.620;2023-06-24T04:46:58;14.90;1.00
19242;DHT22;9755;47.790;9.620;2023-06-24T04:49:25;15.00;1.00
19242;DHT22;9755;47.790;9.620;2023-06-24T04:51:54;15.10;99.90
19242;DHT22;9755;47.790;9.620;2023-06-24T04:54:21;15.20;99.90
19242;DHT22;9755;47.790;9.620;2023-06-24T04:56:48;15.30;99.90
19242;DHT22;9755;47.790;9.620;2023-06-24T04:59:16;15.60;99.90
19242;DHT22;9755;47.790;9.620;2023-06-24T05:01:43;16.20;99.90
19242;DHT22;9755;47.790;9.620;2023-06-24T05:04:10;16.80;1.00
19242;DHT22;9755;47.790;9.620;2023-06-24T05:06:37;17.10;99.90
19242;DHT22;9755;47.790;9.620;2023-06-24T05:09:05;17.60;99.90
19242;DHT22;9755;47.790;9.620;2023-06-24T05:11:32;18.20;99.90
19242;DHT22;9755;47.790;9.620;2023-06-24T05:14:00;19.10;99.90
19242;DHT22;9755;47.790;9.620;2023-06-24T05:16:27;19.60;99.90
19242;DHT22;9755;47.790;9.620;2023-06-24T05:18:54;20.00;99.90
19242;DHT22;9755;47.790;9.620;2023-06-24T05:21:21;20.40;99.90
19242;DHT22;9755;47.790;9.620;2023-06-24T05:23:48;21.10;97.80
19242;DHT22;9755;47.790;9.620;2023-06-24T05:26:17;21.40;95.40
19242;DHT22;9755;47.790;9.620;2023-06-24T05:28:44;22.20;93.10
19242;DHT22;9755;47.790;9.620;2023-06-24T05:31:11;23.00;89.90
19242;DHT22;9755;47.790;9.620;2023-06-24T05:33:38;23.80;80.30
19242;DHT22;9755;47.790;9.620;2023-06-24T05:36:05;24.00;74.00
19242;DHT22;9755;47.790;9.620;2023-06-24T05:38:32;24.70;70.40
19242;DHT22;9755;47.790;9.620;2023-06-24T05:40:59;25.50;63.50
19242;DHT22;9755;47.790;9.620;2023-06-24T05:43:29;26.10;58.00
19242;DHT22;9755;47.790;9.620;2023-06-24T05:45:56;26.40;50.60
19242;DHT22;9755;47.790;9.620;2023-06-24T05:48:23;26.70;48.90
19242;DHT22;9755;47.790;9.620;2023-06-24T05:50:50;27.60;46.00
19242;DHT22;9755;47.790;9.620;2023-06-24T05:53:17;27.90;39.80
19242;DHT22;9755;47.790;9.620;2023-06-24T05:55:44;28.00;38.90
19242;DHT22;9755;47.790;9.620;2023-06-24T05:58:11;28.70;35.70
19242;DHT22;9755;47.790;9.620;2023-06-24T06:00:40;27.60;33.00
19242;DHT22;9755;47.790;9.620;2023-06-24T06:03:07;26.90;37.10
19242;DHT22;9755;47.790;9.620;2023-06-24T06:05:35;27.20;37.70
19242;DHT22;9755;47.790;9.620;2023-06-24T06:08:02;27.70;33.10
19242;DHT22;9755;47.790;9.620;2023-06-24T06:10:29;27.20;33.80
19242;DHT22;9755;47.790;9.620;2023-06-24T06:12:56;26.90;37.70
19242;DHT22;9755;47.790;9.620;2023-06-24T06:15:23;27.80;34.90
19242;DHT22;9755;47.790;9.620;2023-06-24T06:17:52;28.70;31.20
19242;DHT22;9755;47.790;9.620;2023-06-24T06:20:19;28.60;28.50
19242;DHT22;9755;47.790;9.620;2023-06-24T06:22:46;28.80;27.90
19242;DHT22;9755;47.790;9.620;2023-06-24T06:25:13;28.30;27.70
19242;DHT22;9755;47.790;9.620;2023-06-24T06:27:40;27.10;28.40
19242;DHT22;9755;47.790;9.620;2023-06-24T06:30:08;26.40;31.80
19242;DHT22;9755;47.790;9.620;2023-06-24T06:32:35;25.80;36.10
19242;DHT22;9755;47.790;9.620;2023-06-24T06:35:04;26.90;36.30
19242;DHT22;9755;47.790;9.620;2023-06-24T06:37:32;28.20;32.00
19242;DHT22;9755;47.790;9.620;2023-06-24T06:39:59;29.60;27.50
19242;DHT22;9755;47.790;9.620;2023-06-24T06:42:26;29.30;26.80
19242;DHT22;9755;47.790;9.620;2023-06-24T06:44:53;29.90;25.10
19242;DHT22;9755;47.790;9.620;2023-06-24T06:47:20;30.00;25.00
19242;DHT22;9755;47.790;9.620;2023-06-24T06:49:47;30.40;23.50
19242;DHT22;9755;47.790;9.620;2023-06-24T06:52:16;31.10;21.90
19242;DHT22;9755;47.790;9.620;2023-06-24T06:54:43;31.70;21.10
19242;DHT22;9755;47.790;9.620;2023-06-24T06:57:10;32.00;18.60
19242;DHT22;9755;47.790;9.620;2023-06-24T06:59:37;32.30;15.20
19242;DHT22;9755;47.790;9.620;2023-06-24T07:02:04;33.30;14.40
19242;DHT22;9755;47.790;9.620;2023-06-24T07:04:32;33.50;12.50
19242;DHT22;9755;47.790;9.620;2023-06-24T07:06:59;33.30;10.80
19242;DHT22;9755;47.790;9.620;2023-06-24T07:09:27;34.10;10.40
19242;DHT22;9755;47.790;9.620;2023-06-24T07:11:54;34.00;8.00
19242;DHT22;9755;47.790;9.620;2023-06-24T07:14:21;33.00;7.90
19242;DHT22;9755;47.790;9.620;2023-06-24T07:16:48;33.60;8.90
19242;DHT22;9755;47.790;9.620;2023-06-24T07:19:15;34.20;7.50
19242;DHT22;9755;47.790;9.620;2023-06-24T07:21:42;35.00;5.90
19242;DHT22;9755;47.790;9.620;2023-06-24T07:24:09;35.80;4.60
19242;DHT22;9755;47.790;9.620;2023-06-24T07:26:38;35.90;4.00
19242;DHT22;9755;47.790;9.620;2023-06-24T07:29:06;34.40;2.20
19242;DHT22;9755;47.790;9.620;2023-06-24T07:31:33;33.90;2.50
19242;DHT22;9755;47.790;9.620;2023-06-24T07:34:00;32.10;3.50
19242;DHT22;9755;47.790;9.620;2023-06-24T07:36:27;30.90;1.00
19242;DHT22;9755;47.790;9.620;2023-06-24T07:38:55;29.10;4.90
19242;DHT22;9755;47.790;9.620;2023-06-24T07:41:22;29.00;3.30
19242;DHT22;9755;47.790;9.620;2023-06-24T07:43:50;28.30;4.40
19242;DHT22;9755;47.790;9.620;2023-06-24T07:46:17;28.30;5.50
19242;DHT22;9755;47.790;9.620;2023-06-24T07:48:44;27.00;6.50
19242;DHT22;9755;47.790;9.620;2023-06-24T07:51:11;26.50;8.70
19242;DHT22;9755;47.790;9.620;2023-06-24T07:53:38;26.30;10.40
19242;DHT22;9755;47.790;9.620;2023-06-24T07:56:05;25.50;11.10
19242;DHT22;9755;47.790;9.620;2023-06-24T07:58:34;25.40;14.00
19242;DHT22;9755;47.790;9.620;2023-06-24T08:01:04;25.80;14.20
19242;DHT22;9755;47.790;9.620;2023-06-24T08:03:31;27.30;12.20
19242;DHT22;9755;47.790;9.620;2023-06-24T08:05:58;28.40;9.00
19242;DHT22;9755;47.790;9.620;2023-06-24T08:08:25;28.70;7.00
19242;DHT22;9755;47.790;9.620;2023-06-24T08:10:52;27.30;7.40
19242;DHT22;9755;47.790;9.620;2023-06-24T08:13:19;27.10;8.30
19242;DHT22;9755;47.790;9.620;2023-06-24T08:15:46;28.00;8.90
19242;DHT22;9755;47.790;9.620;2023-06-24T08:18:15;28.20;6.70
19242;DHT22;9755;47.790;9.620;2023-06-24T08:20:42;28.80;5.60
19242;DHT22;9755;47.790;9.620;2023-06-24T08:23:09;28.40;6.00
19242;DHT22;9755;47.790;9.620;2023-06-24T08:25:36;28.40;5.20
19242;DHT22;9755;47.790;9.620;2023-06-24T08:28:03;26.90;6.20
19242;DHT22;9755;47.790;9.620;2023-06-24T08:30:30;26.20;5.20
19242;DHT22;9755;47.790;9.620;2023-06-24T08:32:57;26.60;7.70
19242;DHT22;9755;47.790;9.620;2023-06-24T08:35:26;29.00;7.90
19242;DHT22;9755;47.790;9.620;2023-06-24T08:37:53;28.00;5.40
19242;DHT22;9755;47.790;9.620;2023-06-24T08:40:20;26.80;6.50
19242;DHT22;9755;47.790;9.620;2023-06-24T08:42:47;28.20;9.40
19242;DHT22;9755;47.790;9.620;2023-06-24T08:45:14;30.10;5.70
19242;DHT22;9755;47.790;9.620;2023-06-24T08:47:41;31.10;3.20
19242;DHT22;9755;47.790;9.620;2023-06-24T08:50:11;31.30;2.40
19242;DHT22;9755;47.790;9.620;2023-06-24T08:52:43;31.10;1.00
19242;DHT22;9755;47.790;9.620;2023-06-24T08:55:13;29.20;1.00
19242;DHT22;9755;47.790;9.620;2023-06-24T08:57:43;27.40;3.50
19242;DHT22;9755;47.790;9.620;2023-06-24T09:00:11;27.30;4.40
19242;DHT22;9755;47.790;9.620;2023-06-24T09:02:38;27.50;4.20
19242;DHT22;9755;47.790;9.620;2023-06-24T09:05:06;26.40;6.10
19242;DHT22;9755;47.790;9.620;2023-06-24T09:07:34;27.70;5.60
19242;DHT22;9755;47.790;9.620;2023-06-24T09:10:03;29.90;3.50
19242;DHT22;9755;47.790;9.620;2023-06-24T09:12:32;30.20;1.00
19242;DHT22;9755;47.790;9.620;2023-06-24T09:14:59;28.30;1.00
19242;DHT22;9755;47.790;9.620;2023-06-24T09:17:26;28.40;1.80
19242;DHT22;9755;47.790;9.620;2023-06-24T09:19:54;30.10;1.00
19242;DHT22;9755;47.790;9.620;2023-06-24T09:22:30;30.90;1.00
19242;DHT22;9755;47.790;9.620;2023-06-24T09:25:02;32.10;1.00
19242;DHT22;9755;47.790;9.620;2023-06-24T09:27:31;30.80;1.00
19242;DHT22;9755;47.790;9.620;2023-06-24T09:29:59;30.30;1.00
19242;DHT22;9755;47.790;9.620;2023-06-24T09:32:29;30.60;1.00
19242;DHT22;9755;47.790;9.620;2023-06-24T09:34:57;28.80;1.00
19242;DHT22;9755;47.790;9.620;2023-06-24T09:37:25;28.90;1.00
19242;DHT22;9755;47.790;9.620;2023-06-24T09:39:56;28.10;1.00
19242;DHT22;9755;47.790;9.620;2023-06-24T09:42:25;28.70;1.00
19242;DHT22;9755;47.790;9.620;2023-06-24T09:44:55;29.30;1.00
19242;DHT22;9755;47.790;9.620;2023-06-24T09:47:23;30.50;1.00
19242;DHT22;9755;47.790;9.620;2023-06-24T09:49:51;29.50;1.00
19242;DHT22;9755;47.790;9.620;2023-06-24T09:52:19;29.40;1.00
19242;DHT22;9755;47.790;9.620;2023-06-24T09:54:50;29.90;1.00
19242;DHT22;9755;47.790;9.620;2023-06-24T09:57:19;31.50;1.00
19242;DHT22;9755;47.790;9.620;2023-06-24T09:59:51;31.90;1.00
19242;DHT22;9755;47.790;9.620;2023-06-24T10:02:19;32.10;1.00
19242;DHT22;9755;47.790;9.620;2023-06-24T10:04:46;31.50;1.00
19242;DHT22;9755;47.790;9.620;2023-06-24T10:07:13;30.10;1.00
19242;DHT22;9755;47.790;9.620;2023-06-24T10:09:41;29.90;1.00
19242;DHT22;9755;47.790;9.620;2023-06-24T10:12:09;29.80;1.00
19242;DHT22;9755;47.790;9.620;2023-06-24T10:14:36;30.30;1.00
19242;DHT22;9755;47.790;9.620;2023-06-24T10:17:05;30.60;1.00
19242;DHT22;9755;47.790;9.620;2023-06-24T10:19:38;31.10;1.00
19242;DHT22;9755;47.790;9.620;2023-06-24T10:22:08;30.50;1.00
19242;DHT22;9755;47.790;9.620;2023-06-24T10:24:37;29.30;1.00
19242;DHT22;9755;47.790;9.620;2023-06-24T10:27:07;29.90;1.00
19242;DHT22;9755;47.790;9.620;2023-06-24T10:29:35;30.10;1.00
19242;DHT22;9755;47.790;9.620;2023-06-24T10:32:05;30.50;1.00
19242;DHT22;9755;47.790;9.620;2023-06-24T10:34:43;30.70;1.00
19242;DHT22;9755;47.790;9.620;2023-06-24T10:37:13;30.90;1.00
19242;DHT22;9755;47.790;9.620;2023-06-24T10:39:45;31.90;1.00
19242;DHT22;9755;47.790;9.620;2023-06-24T10:42:38;30.90;1.00
19242;DHT22;9755;47.790;9.620;2023-06-24T10:45:18;29.80;1.00
19242;DHT22;9755;47.790;9.620;2023-06-24T10:47:48;29.00;1.00
19242;DHT22;9755;47.790;9.620;2023-06-24T10:50:17;30.10;1.00
19242;DHT22;9755;47.790;9.620;2023-06-24T10:52:46;30.60;1.00
19242;DHT22;9755;47.790;9.620;2023-06-24T10:55:14;30.00;1.00
19242;DHT22;9755;47.790;9.620;2023-06-24T10:57:42;29.40;1.00
19242;DHT22;9755;47.790;9.620;2023-06-24T11:00:10;29.00;1.00
19242;DHT22;9755;47.790;9.620;2023-06-24T11:02:38;29.80;1.00
19242;DHT22;9755;47.790;9.620;2023-06-24T11:05:07;31.10;1.00
19242;DHT22;9755;47.790;9.620;2023-06-24T11:07:35;30.80;1.00
19242;DHT22;9755;47.790;9.620;2023-06-24T11:10:04;30.10;1.00
19242;DHT22;9755;47.790;9.620;2023-06-24T11:12:32;30.50;1.00
19242;DHT22;9755;47.790;9.620;2023-06-24T11:15:01;30.20;1.00
19242;DHT22;9755;47.790;9.620;2023-06-24T11:17:29;30.30;1.00
19242;DHT22;9755;47.790;9.620;2023-06-24T11:19:57;31.50;1.00
19242;DHT22;9755;47.790;9.620;2023-06-24T11:22:26;31.50;1.00
19242;DHT22;9755;47.790;9.620;2023-06-24T11:24:54;30.70;1.00
19242;DHT22;9755;47.790;9.620;2023-06-24T11:27:25;28.30;1.00
19242;DHT22;9755;47.790;9.620;2023-06-24T11:29:53;26.80;1.00
19242;DHT22;9755;47.790;9.620;2023-06-24T11:32:20;27.00;1.00
19242;DHT22;9755;47.790;9.620;2023-06-24T11:34:48;28.90;1.00
19242;DHT22;9755;47.790;9.620;2023-06-24T11:37:16;29.80;1.00
19242;DHT22;9755;47.790;9.620;2023-06-24T11:39:59;30.80;1.00
19242;DHT22;9755;47.790;9.620;2023-06-24T11:42:28;31.10;1.00
19242;DHT22;9755;47.790;9.620;2023-06-24T11:44:59;29.90;1.00
19242;DHT22;9755;47.790;9.620;2023-06-24T11:47:27;27.70;1.00
19242;DHT22;9755;47.790;9.620;2023-06-24T11:49:57;28.60;1.00
19242;DHT22;9755;47.790;9.620;2023-06-24T11:52:41;30.20;1.00
19242;DHT22;9755;47.790;9.620;2023-06-24T11:55:16;30.90;1.00
19242;DHT22;9755;47.790;9.620;2023-06-24T11:57:48;31.00;1.00
19242;DHT22;9755;47.790;9.620;2023-06-24T12:00:16;31.50;1.00
19242;DHT22;9755;47.790;9.620;2023-06-24T12:02:43;31.90;1.00
19242;DHT22;9755;47.790;9.620;2023-06-24T12:05:10;32.00;1.00
19242;DHT22;9755;47.790;9.620;2023-06-24T12:07:37;31.50;1.00
19242;DHT22;9755;47.790;9.620;2023-06-24T12:10:08;30.60;1.00
19242;DHT22;9755;47.790;9.620;2023-06-24T12:12:36;30.10;1.00
19242;DHT22;9755;47.790;9.620;2023-06-24T12:15:04;28.80;1.00
19242;DHT22;9755;47.790;9.620;2023-06-24T12:17:32;29.40;1.00
19242;DHT22;9755;47.790;9.620;2023-06-24T12:19:59;30.30;1.00
19242;DHT22;9755;47.790;9.620;2023-06-24T12:22:26;30.80;1.00
19242;DHT22;9755;47.790;9.620;2023-06-24T12:24:53;29.00;1.00
19242;DHT22;9755;47.790;9.620;2023-06-24T12:27:20;29.50;1.00
19242;DHT22;9755;47.790;9.620;2023-06-24T12:29:48;29.80;1.00
19242;DHT22;9755;47.790;9.620;2023-06-24T12:32:16;29.60;1.00
19242;DHT22;9755;47.790;9.620;2023-06-24T12:34:43;29.20;1.00
19242;DHT22;9755;47.790;9.620;2023-06-24T12:37:09;29.80;1.00
19242;DHT22;9755;47.790;9.620;2023-06-24T12:39:37;29.90;1.00
19242;DHT22;9755;47.790;9.620;2023-06-24T12:42:04;30.10;1.00
19242;DHT22;9755;47.790;9.620;2023-06-24T12:44:32;30.00;1.00
19242;DHT22;9755;47.790;9.620;2023-06-24T12:47:00;30.70;1.00
19242;DHT22;9755;47.790;9.620;2023-06-24T12:49:28;30.30;1.00
19242;DHT22;9755;47.790;9.620;2023-06-24T12:51:55;30.80;1.00
19242;DHT22;9755;47.790;9.620;2023-06-24T12:54:22;30.70;1.00
19242;DHT22;9755;47.790;9.620;2023-06-24T12:56:49;31.00;1.00
19242;DHT22;9755;47.790;9.620;2023-06-24T12:59:16;31.90;1.00
19242;DHT22;9755;47.790;9.620;2023-06-24T13:01:43;32.10;1.00
19242;DHT22;9755;47.790;9.620;2023-06-24T13:04:12;32.00;1.00
19242;DHT22;9755;47.790;9.620;2023-06-24T13:06:39;30.70;1.00
19242;DHT22;9755;47.790;9.620;2023-06-24T13:09:06;30.40;1.00
19242;DHT22;9755;47.790;9.620;2023-06-24T13:11:33;30.30;1.00
19242;DHT22;9755;47.790;9.620;2023-06-24T13:14:00;30.90;1.00
19242;DHT22;9755;47.790;9.620;2023-06-24T13:16:27;30.90;1.00
19242;DHT22;9755;47.790;9.620;2023-06-24T13:18:54;29.90;1.00
19242;DHT22;9755;47.790;9.620;2023-06-24T13:21:23;29.40;1.00
19242;DHT22;9755;47.790;9.620;2023-06-24T13:23:50;29.60;1.00
19242;DHT22;9755;47.790;9.620;2023-06-24T13:26:17;29.80;1.00
19242;DHT22;9755;47.790;9.620;2023-06-24T13:28:44;30.60;1.00
19242;DHT22;9755;47.790;9.620;2023-06-24T13:31:11;30.90;1.00
19242;DHT22;9755;47.790;9.620;2023-06-24T13:33:38;30.10;1.00
19242;DHT22;9755;47.790;9.620;2023-06-24T13:36:07;28.90;1.00
19242;DHT22;9755;47.790;9.620;2023-06-24T13:38:35;29.10;1.00
19242;DHT22;9755;47.790;9.620;2023-06-24T13:41:02;30.00;1.00
19242;DHT22;9755;47.790;9.620;2023-06-24T13:43:29;29.90;1.00
19242;DHT22;9755;47.790;9.620;2023-06-24T13:45:56;29.90;1.00
19242;DHT22;9755;47.790;9.620;2023-06-24T13:48:23;28.80;1.00
19242;DHT22;9755;47.790;9.620;2023-06-24T13:50:50;29.20;1.00
19242;DHT22;9755;47.790;9.620;2023-06-24T13:53:17;28.70;1.00
19242;DHT22;9755;47.790;9.620;2023-06-24T13:55:46;29.10;1.00
19242;DHT22;9755;47.790;9.620;2023-06-24T13:58:13;29.60;1.00
19242;DHT22;9755;47.790;9.620;2023-06-24T14:00:40;29.40;1.00
19242;DHT22;9755;47.790;9.620;2023-06-24T14:03:07;29.30;1.00
19242;DHT22;9755;47.790;9.620;2023-06-24T14:05:34;29.70;1.00
19242;DHT22;9755;47.790;9.620;2023-06-24T14:08:01;30.10;1.00
19242;DHT22;9755;47.790;9.620;2023-06-24T14:10:29;29.60;1.00
19242;DHT22;9755;47.790;9.620;2023-06-24T14:12:57;28.60;1.00
19242;DHT22;9755;47.790;9.620;2023-06-24T14:15:24;29.40;1.00
19242;DHT22;9755;47.790;9.620;2023-06-24T14:17:51;30.20;1.00
19242;DHT22;9755;47.790;9.620;2023-06-24T14:20:19;30.30;1.00
19242;DHT22;9755;47.790;9.620;2023-06-24T14:22:46;30.40;1.00
19242;DHT22;9755;47.790;9.620;2023-06-24T14:25:13;30.70;1.00
19242;DHT22;9755;47.790;9.620;2023-06-24T14:27:40;29.50;1.00
19242;DHT22;9755;47.790;9.620;2023-06-24T14:30:09;28.70;1.00
19242;DHT22;9755;47.790;9.620;2023-06-24T14:32:37;28.40;1.00
19242;DHT22;9755;47.790;9.620;2023-06-24T14:35:05;28.80;1.00
19242;DHT22;9755;47.790;9.620;2023-06-24T14:37:32;28.20;1.00
19242;DHT22;9755;47.790;9.620;2023-06-24T14:39:59;28.40;1.00
19242;DHT22;9755;47.790;9.620;2023-06-24T14:42:26;28.50;1.00
19242;DHT22;9755;47.790;9.620;2023-06-24T14:44:53;28.90;1.00
19242;DHT22;9755;47.790;9.620;2023-06-24T14:47:21;29.20;1.00
19242;DHT22;9755;47.790;9.620;2023-06-24T14:49:48;29.40;1.00
19242;DHT22;9755;47.790;9.620;2023-06-24T14:52:16;28.70;1.00
19242;DHT22;9755;47.790;9.620;2023-06-24T14:54:43;29.20;1.00
19242;DHT22;9755;47.790;9.620;2023-06-24T14:57:10;29.50;1.00
19242;DHT22;9755;47.790;9.620;2023-06-24T14:59:37;29.40;1.00
19242;DHT22;9755;47.790;9.620;2023-06-24T15:02:04;29.40;1.00
19242;DHT22;9755;47.790;9.620;2023-06-24T15:04:33;29.20;1.00
19242;DHT22;9755;47.790;9.620;2023-06-24T15:07:00;28.80;1.00
19242;DHT22;9755;47.790;9.620;2023-06-24T15:09:27;28.70;1.00
19242;DHT22;9755;47.790;9.620;2023-06-24T15:11:54;28.50;1.00
19242;DHT22;9755;47.790;9.620;2023-06-24T15:14:21;28.30;1.00
19242;DHT22;9755;47.790;9.620;2023-06-24T15:16:49;28.80;1.00
19242;DHT22;9755;47.790;9.620;2023-06-24T15:19:19;28.90;1.00
19242;DHT22;9755;47.790;9.620;2023-06-24T15:21:48;28.90;1.00
19242;DHT22;9755;47.790;9.620;2023-06-24T15:24:15;28.30;1.00
19242;DHT22;9755;47.790;9.620;2023-06-24T15:26:42;28.60;1.00
19242;DHT22;9755;47.790;9.620;2023-06-24T15:29:09;28.60;1.00
19242;DHT22;9755;47.790;9.620;2023-06-24T15:31:36;28.60;1.00
19242;DHT22;9755;47.790;9.620;2023-06-24T15:34:03;28.70;1.00
19242;DHT22;9755;47.790;9.620;2023-06-24T15:36:30;28.60;1.00
19242;DHT22;9755;47.790;9.620;2023-06-24T15:38:58;28.90;1.00
19242;DHT22;9755;47.790;9.620;2023-06-24T15:41:25;29.00;1.00
19242;DHT22;9755;47.790;9.620;2023-06-24T15:43:52;29.20;1.00
19242;DHT22;9755;47.790;9.620;2023-06-24T15:46:19;29.20;1.00
19242;DHT22;9755;47.790;9.620;2023-06-24T15:48:48;29.20;1.00
19242;DHT22;9755;47.790;9.620;2023-06-24T15:51:15;28.00;1.00
19242;DHT22;9755;47.790;9.620;2023-06-24T15:53:42;28.00;1.00
19242;DHT22;9755;47.790;9.620;2023-06-24T15:56:10;27.90;1.00
19242;DHT22;9755;47.790;9.620;2023-06-24T15:58:38;27.80;1.00
19242;DHT22;9755;47.790;9.620;2023-06-24T16:01:05;27.90;1.00
19242;DHT22;9755;47.790;9.620;2023-06-24T16:03:32;28.00;1.00
19242;DHT22;9755;47.790;9.620;2023-06-24T16:05:59;27.80;1.00